Terminal Aerodrome Forecast
Issued by NWS Milwaukee/Sullivan, WI

Home | Current Version | Previous Version | Text Only | Print | Product List | Glossary On
Versions: 1 2 3 4 5 6 7 8 9 10 11 12 13 14 15 16 17 18 19 20 21 22 23 24 25 26 27 28 29 30 31 32 33 34
000
FTUS43 KMKX 020520
TAFMSN
TAF
KMSN 020520Z 0206/0306 22004KT P6SM FEW200
     FM021100 23009KT P6SM VCTS SCT100CB WS020/25040KT
     FM021500 22013G20KT P6SM VCTS SCT100CB
     FM021800 23016G27KT P6SM SCT100
     FM022300 26014G22KT P6SM SCT050
     FM030200 28007KT P6SM SCT050=

USA.gov is the U.S. government's official web portal to all federal, state and local government web resources and services.